Time;durP1;ratioP1;P1;durP2;ratioP2;P2;SDS_P1;SDS_P2;PMS_P1;PMS_P2;Temp;Humidity;BMP_temperature;BMP_pressure;BME280_temperature;BME280_humidity;BME280_pressure;Samples;Min_cycle;Max_cycle;Signal;HPM_P1;HPM_P2
2021/03/23 00:01:06;;;;;;;19.38;8.00;;;5.80;99.90;;;;;;5093040;28;20386;-64
2021/03/23 00:03:35;;;;;;;17.57;8.30;;;5.80;99.90;;;;;;5090651;28;20893;-64
2021/03/23 00:06:01;;;;;;;18.67;7.88;;;5.80;99.90;;;;;;5092483;28;20382;-64
2021/03/23 00:08:42;;;;;;;18.67;7.60;;;5.70;99.90;;;;;;5090801;28;20794;-60
2021/03/23 00:11:10;;;;;;;18.85;8.27;;;5.80;99.90;;;;;;5092661;28;20529;-64
2021/03/23 00:13:38;;;;;;;18.27;7.80;;;5.80;99.90;;;;;;5091433;28;20515;-64
2021/03/23 00:16:04;;;;;;;16.05;7.50;;;5.80;99.90;;;;;;5091075;28;20418;-65
2021/03/23 00:18:30;;;;;;;16.15;7.75;;;5.70;99.90;;;;;;5091557;28;20503;-64
2021/03/23 00:20:56;;;;;;;15.60;8.50;;;5.70;99.90;;;;;;5091079;28;20560;-64
2021/03/23 00:23:21;;;;;;;20.52;8.02;;;5.70;99.90;;;;;;5092459;28;20378;-63
2021/03/23 00:25:47;;;;;;;17.10;7.90;;;5.70;99.90;;;;;;5090567;28;20718;-62
2021/03/23 00:28:13;;;;;;;18.93;8.43;;;5.70;99.90;;;;;;5092468;28;20466;-64
2021/03/23 00:30:39;;;;;;;21.30;8.50;;;5.60;99.90;;;;;;5090757;28;20463;-63
2021/03/23 00:33:04;;;;;;;17.92;8.35;;;5.60;99.90;;;;;;5091156;28;20398;-63
2021/03/23 00:35:30;;;;;;;15.60;8.60;;;5.60;99.90;;;;;;5090823;28;20494;-63
2021/03/23 00:37:59;;;;;;;15.70;8.30;;;5.60;99.90;;;;;;5091054;28;20465;-63
2021/03/23 00:40:29;;;;;;;18.38;8.15;;;5.50;99.90;;;;;;5090263;28;20451;-58
2021/03/23 00:42:56;;;;;;;18.17;8.23;;;5.50;99.90;;;;;;5091569;28;20384;-63
2021/03/23 00:45:23;;;;;;;17.90;8.18;;;5.50;99.90;;;;;;5090718;28;20386;-63
2021/03/23 00:47:49;;;;;;;20.52;8.85;;;5.40;99.90;;;;;;5091661;28;20378;-63
2021/03/23 00:50:15;;;;;;;19.17;8.55;;;5.50;99.90;;;;;;5090789;28;20393;-63
2021/03/23 00:52:41;;;;;;;22.80;9.90;;;5.50;99.90;;;;;;5090691;28;20441;-64
2021/03/23 00:55:08;;;;;;;24.48;8.25;;;5.50;99.90;;;;;;5091883;28;20847;-63
2021/03/23 00:57:34;;;;;;;17.15;8.80;;;5.50;99.90;;;;;;5089570;28;20409;-63
2021/03/23 00:59:59;;;;;;;18.23;8.43;;;5.60;99.90;;;;;;5091902;28;20382;-63
2021/03/23 01:02:25;;;;;;;16.33;8.23;;;5.70;99.90;;;;;;5091622;28;20377;-59
2021/03/23 01:04:52;;;;;;;19.10;10.20;;;5.80;99.90;;;;;;5089996;28;20387;-64
2021/03/23 01:07:18;;;;;;;21.83;9.98;;;5.90;99.90;;;;;;5091110;28;20370;-64
2021/03/23 01:09:44;;;;;;;23.30;9.40;;;6.00;99.90;;;;;;5089378;28;20398;-64
2021/03/23 01:12:10;;;;;;;23.52;9.85;;;6.10;99.90;;;;;;5090450;28;20406;-62
2021/03/23 01:14:37;;;;;;;21.10;9.60;;;6.10;99.90;;;;;;5070927;28;20428;-63
2021/03/23 01:17:03;;;;;;;24.58;9.63;;;6.20;99.90;;;;;;5090076;28;20400;-63
2021/03/23 01:19:29;;;;;;;19.97;10.00;;;6.10;99.90;;;;;;5090308;28;20404;-61
2021/03/23 01:21:55;;;;;;;20.53;10.30;;;6.00;99.90;;;;;;5091656;28;20382;-64
2021/03/23 01:24:21;;;;;;;22.63;10.23;;;6.00;99.90;;;;;;5089729;28;20421;-63
2021/03/23 01:26:47;;;;;;;27.10;11.00;;;6.00;99.90;;;;;;5089988;28;20418;-63
2021/03/23 01:29:12;;;;;;;22.73;10.27;;;6.00;99.90;;;;;;5089705;28;20875;-63
2021/03/23 01:31:38;;;;;;;23.08;10.85;;;6.00;99.90;;;;;;5090523;28;20416;-63
2021/03/23 01:34:04;;;;;;;22.90;11.10;;;6.00;99.90;;;;;;5089967;28;20455;-63
2021/03/23 01:36:30;;;;;;;24.50;10.70;;;6.00;99.90;;;;;;5090197;28;20424;-64
2021/03/23 01:38:56;;;;;;;24.30;11.00;;;5.90;99.90;;;;;;5090767;28;20370;-65
2021/03/23 01:41:21;;;;;;;23.00;10.60;;;5.90;99.90;;;;;;5089624;28;20819;-64
2021/03/23 01:43:47;;;;;;;23.63;11.33;;;5.90;99.90;;;;;;5090236;28;20970;-64
2021/03/23 01:46:31;;;;;;;23.73;10.85;;;5.90;99.90;;;;;;5089876;28;20855;-63
2021/03/23 01:48:59;;;;;;;24.00;11.05;;;5.80;99.90;;;;;;5090492;28;20379;-64
2021/03/23 01:51:24;;;;;;;24.00;12.13;;;5.60;99.90;;;;;;5089431;28;21137;-64
2021/03/23 01:53:59;;;;;;;24.35;11.57;;;5.70;99.90;;;;;;5090625;28;20378;-63
2021/03/23 01:56:26;;;;;;;27.80;12.05;;;5.60;99.90;;;;;;5089773;28;20481;-63
2021/03/23 01:58:52;;;;;;;24.63;12.25;;;5.60;99.90;;;;;;5089850;28;20370;-62
2021/03/23 02:01:19;;;;;;;28.80;12.80;;;6.90;99.90;;;;;;5089265;28;20409;-65
2021/03/23 02:03:47;;;;;;;26.20;12.00;;;5.60;99.90;;;;;;5089159;28;20389;-65
2021/03/23 02:06:40;;;;;;;25.80;11.27;;;5.60;99.90;;;;;;5089407;28;20402;-63
2021/03/23 02:09:10;;;;;;;24.25;11.23;;;5.60;99.90;;;;;;5090340;28;20378;-64
2021/03/23 02:11:41;;;;;;;27.55;12.13;;;5.50;99.90;;;;;;5067131;28;20413;-63
2021/03/23 02:14:09;;;;;;;27.23;12.47;;;5.40;99.90;;;;;;5089320;28;20903;-62
2021/03/23 02:16:34;;;;;;;28.15;12.25;;;5.40;99.90;;;;;;5087883;28;20429;-61
2021/03/23 02:19:00;;;;;;;26.30;12.57;;;5.50;99.90;;;;;;5089502;28;20418;-64
2021/03/23 02:21:26;;;;;;;26.77;12.38;;;5.50;99.90;;;;;;5089105;28;20822;-64
2021/03/23 02:23:53;;;;;;;30.40;12.77;;;5.50;99.90;;;;;;5089623;28;20848;-65
2021/03/23 02:26:28;;;;;;;29.45;13.82;;;6.60;99.90;;;;;;5088361;28;20390;-64
2021/03/23 02:28:59;;;;;;;27.50;12.80;;;5.40;99.90;;;;;;5089850;28;20465;-64
2021/03/23 02:31:30;;;;;;;29.08;13.60;;;5.40;99.90;;;;;;5089739;28;20414;-64
2021/03/23 02:33:57;;;;;;;23.88;12.32;;;6.10;99.90;;;;;;5088548;28;20390;-60
2021/03/23 02:36:24;;;;;;;28.67;13.23;;;5.50;99.90;;;;;;5089013;28;20402;-64
2021/03/23 02:38:50;;;;;;;28.48;12.70;;;5.60;99.90;;;;;;5088600;28;20875;-62
2021/03/23 02:41:16;;;;;;;25.45;12.85;;;5.60;99.90;;;;;;5089883;28;20780;-63
2021/03/23 02:43:42;;;;;;;27.88;12.23;;;5.60;99.90;;;;;;5088053;28;20769;-64
2021/03/23 02:46:08;;;;;;;25.80;12.47;;;5.70;99.90;;;;;;5089561;28;20386;-64
2021/03/23 02:48:34;;;;;;;24.23;12.07;;;5.70;99.90;;;;;;5087212;28;20473;-63
2021/03/23 02:51:00;;;;;;;26.35;12.45;;;5.60;99.90;;;;;;5089558;28;20410;-63
2021/03/23 02:53:25;;;;;;;27.77;12.10;;;5.60;99.90;;;;;;5088282;28;20390;-63
2021/03/23 02:55:51;;;;;;;28.50;12.73;;;5.60;99.90;;;;;;5089199;28;20390;-64
2021/03/23 02:58:17;;;;;;;25.77;13.05;;;5.60;99.90;;;;;;5088651;28;20402;-63
2021/03/23 03:00:42;;;;;;;27.13;13.20;;;5.60;99.90;;;;;;5087548;28;20401;-64
2021/03/23 03:03:08;;;;;;;24.27;12.10;;;5.60;99.90;;;;;;5089686;28;20440;-63
2021/03/23 03:05:34;;;;;;;29.23;13.25;;;5.60;99.90;;;;;;5089495;28;20839;-64
2021/03/23 03:08:00;;;;;;;26.40;12.07;;;5.50;99.90;;;;;;5088217;28;20394;-64
2021/03/23 03:10:26;;;;;;;29.97;12.57;;;5.50;99.90;;;;;;5089329;28;20484;-64
2021/03/23 03:12:53;;;;;;;25.77;12.00;;;5.40;99.90;;;;;;5088626;28;20378;-64
2021/03/23 03:15:19;;;;;;;25.53;12.60;;;5.40;99.90;;;;;;5088489;28;20830;-64
2021/03/23 03:17:44;;;;;;;23.73;11.55;;;5.50;99.90;;;;;;5092732;28;20807;-62
2021/03/23 03:20:12;;;;;;;24.60;11.63;;;7.30;99.90;;;;;;5092299;28;20405;-63
2021/03/23 03:22:38;;;;;;;27.88;11.50;;;5.40;99.90;;;;;;5092836;28;20393;-63
2021/03/23 03:25:06;;;;;;;23.40;11.83;;;5.30;99.90;;;;;;5093497;28;20925;-64
2021/03/23 03:27:32;;;;;;;25.10;12.13;;;5.30;99.90;;;;;;5093236;28;20382;-60
2021/03/23 03:29:57;;;;;;;27.30;12.50;;;6.30;99.90;;;;;;5093255;28;20427;-64
2021/03/23 03:32:23;;;;;;;27.37;12.07;;;5.50;99.90;;;;;;5094002;28;20759;-64
2021/03/23 03:34:48;;;;;;;21.67;11.60;;;5.50;99.90;;;;;;5074611;28;20621;-63
2021/03/23 03:37:14;;;;;;;21.40;10.23;;;5.60;99.90;;;;;;5093729;28;20469;-64
2021/03/23 03:39:40;;;;;;;27.80;12.30;;;5.60;99.90;;;;;;5074872;28;20374;-64
2021/03/23 03:42:06;;;;;;;25.90;12.17;;;5.50;99.90;;;;;;5093073;28;20401;-65
2021/03/23 03:44:32;;;;;;;23.58;11.23;;;5.50;99.90;;;;;;5092889;28;20740;-59
2021/03/23 03:46:57;;;;;;;25.73;11.27;;;5.50;99.90;;;;;;5075038;28;20871;-64
2021/03/23 03:49:23;;;;;;;28.10;12.07;;;5.40;99.90;;;;;;5093281;28;20385;-65
2021/03/23 03:51:48;;;;;;;23.43;11.50;;;5.50;99.90;;;;;;5092222;28;20402;-64
2021/03/23 03:54:14;;;;;;;25.48;10.80;;;5.40;99.90;;;;;;5093318;28;20705;-65
2021/03/23 03:56:40;;;;;;;27.30;11.57;;;5.40;99.90;;;;;;5092244;28;20463;-64
2021/03/23 03:59:05;;;;;;;24.70;11.45;;;5.40;99.90;;;;;;5092958;28;20456;-64
2021/03/23 04:01:31;;;;;;;24.30;11.50;;;5.50;99.90;;;;;;5092767;28;20468;-59
2021/03/23 04:03:56;;;;;;;22.60;11.00;;;5.50;99.90;;;;;;5092621;28;20856;-65
2021/03/23 04:06:22;;;;;;;27.80;12.60;;;5.50;99.90;;;;;;5092804;28;20382;-64
2021/03/23 04:08:48;;;;;;;28.70;12.10;;;5.50;99.90;;;;;;5092186;28;20436;-64
2021/03/23 04:11:14;;;;;;;28.80;12.18;;;6.10;99.90;;;;;;5092361;28;20457;-64
2021/03/23 04:13:39;;;;;;;22.13;11.00;;;5.60;99.90;;;;;;5091772;28;20429;-64
2021/03/23 04:16:05;;;;;;;30.80;13.13;;;5.50;99.90;;;;;;5092844;28;20374;-65
2021/03/23 04:18:31;;;;;;;28.05;12.18;;;5.40;99.90;;;;;;5092163;28;20418;-59
2021/03/23 04:21:00;;;;;;;25.17;12.57;;;5.50;99.90;;;;;;5091744;28;20482;-63
2021/03/23 04:23:27;;;;;;;27.20;12.25;;;5.50;99.90;;;;;;5092504;28;20743;-64
2021/03/23 04:25:54;;;;;;;26.38;12.90;;;5.60;99.90;;;;;;5091242;28;20382;-64
2021/03/23 04:28:20;;;;;;;26.02;12.63;;;5.60;99.90;;;;;;5092697;28;20393;-64
2021/03/23 04:30:47;;;;;;;24.80;11.80;;;5.60;99.90;;;;;;5085954;28;20420;-63
2021/03/23 04:33:13;;;;;;;26.48;12.95;;;5.60;99.90;;;;;;5072546;28;20380;-65
2021/03/23 04:35:38;;;;;;;25.70;11.82;;;5.60;99.90;;;;;;5072020;28;20384;-64
2021/03/23 04:38:04;;;;;;;24.83;12.60;;;5.60;99.90;;;;;;5072005;28;20740;-64
2021/03/23 04:40:29;;;;;;;28.13;12.48;;;5.60;99.90;;;;;;5071472;28;20380;-64
2021/03/23 04:42:55;;;;;;;27.37;12.40;;;5.70;99.90;;;;;;5053427;28;20758;-64
2021/03/23 04:45:20;;;;;;;30.42;13.90;;;5.70;99.90;;;;;;5071751;28;20407;-65
2021/03/23 04:47:47;;;;;;;28.43;13.20;;;5.80;99.90;;;;;;5070895;28;20436;-65
2021/03/23 04:50:14;;;;;;;30.85;14.48;;;5.70;99.90;;;;;;5071812;28;20414;-64
2021/03/23 04:52:40;;;;;;;29.50;12.88;;;5.60;99.90;;;;;;5070823;28;20881;-64
2021/03/23 04:55:06;;;;;;;24.87;12.37;;;5.60;99.90;;;;;;5071574;28;20394;-64
2021/03/23 04:57:32;;;;;;;27.83;12.65;;;5.60;99.90;;;;;;5071315;28;20403;-58
2021/03/23 04:59:58;;;;;;;34.72;15.57;;;5.60;99.90;;;;;;5071302;28;20372;-64
2021/03/23 05:02:23;;;;;;;26.13;12.43;;;6.50;99.90;;;;;;5053108;28;20395;-64
2021/03/23 05:04:49;;;;;;;29.27;13.55;;;5.50;99.90;;;;;;5072248;28;20868;-62
2021/03/23 05:07:15;;;;;;;29.10;13.93;;;5.50;99.90;;;;;;5077358;28;20389;-64
2021/03/23 05:09:40;;;;;;;26.48;13.00;;;5.50;99.90;;;;;;5070403;28;20511;-65
2021/03/23 05:12:08;;;;;;;31.13;14.03;;;5.50;99.90;;;;;;5060865;28;20438;-66
2021/03/23 05:14:33;;;;;;;33.75;14.38;;;5.60;99.90;;;;;;5090071;28;20381;-60
2021/03/23 05:16:59;;;;;;;34.57;14.80;;;5.60;99.90;;;;;;5078969;28;20733;-65
2021/03/23 05:19:24;;;;;;;32.90;15.30;;;5.60;99.90;;;;;;5072735;28;20838;-65
2021/03/23 05:21:50;;;;;;;33.13;13.87;;;5.70;99.90;;;;;;5089022;28;20390;-67
2021/03/23 05:24:16;;;;;;;27.20;12.23;;;5.80;99.90;;;;;;5088971;28;20378;-67
2021/03/23 05:26:41;;;;;;;27.20;11.70;;;5.70;99.90;;;;;;5089178;28;20398;-65
2021/03/23 05:29:07;;;;;;;27.27;12.33;;;5.70;99.90;;;;;;5087866;28;20418;-65
2021/03/23 05:31:33;;;;;;;25.45;12.20;;;5.80;99.90;;;;;;5075064;28;20905;-59
2021/03/23 05:33:59;;;;;;;23.10;11.57;;;5.80;99.90;;;;;;5085297;28;20887;-66
2021/03/23 05:36:25;;;;;;;25.48;12.00;;;5.80;99.90;;;;;;5077214;28;20634;-66
2021/03/23 05:38:51;;;;;;;26.80;13.18;;;5.80;99.90;;;;;;5077410;28;20817;-65
2021/03/23 05:41:52;;;;;;;23.75;11.73;;;5.90;99.90;;;;;;5090878;28;20398;-65
2021/03/23 05:44:39;;;;;;;29.05;12.90;;;5.70;99.90;;;;;;5089890;28;20430;-65
2021/03/23 05:47:10;;;;;;;27.73;12.02;;;5.70;99.90;;;;;;5089913;28;20374;-66
2021/03/23 05:49:52;;;;;;;24.70;13.23;;;5.60;99.90;;;;;;5089266;28;20401;-62
2021/03/23 05:52:26;;;;;;;28.60;12.20;;;5.60;99.90;;;;;;5089311;28;20418;-64
2021/03/23 05:54:57;;;;;;;29.67;14.02;;;5.60;99.90;;;;;;5089626;28;20395;-65
2021/03/23 05:57:34;;;;;;;26.02;13.15;;;5.60;99.90;;;;;;5089353;28;20449;-64
2021/03/23 06:00:06;;;;;;;30.30;13.70;;;5.70;99.90;;;;;;5090666;28;20406;-65
2021/03/23 06:02:55;;;;;;;26.98;12.85;;;5.70;99.90;;;;;;5089798;28;20386;-59
2021/03/23 06:05:47;;;;;;;31.70;14.32;;;5.70;99.90;;;;;;5090038;28;20468;-66
2021/03/23 06:08:25;;;;;;;28.33;13.13;;;5.80;99.90;;;;;;5089145;28;20850;-67
2021/03/23 06:11:04;;;;;;;26.45;12.85;;;5.90;99.90;;;;;;5089055;28;20422;-66
2021/03/23 06:13:58;;;;;;;27.83;12.63;;;5.90;99.90;;;;;;5090270;28;20389;-65
2021/03/23 06:16:49;;;;;;;26.23;12.38;;;5.90;99.90;;;;;;5088785;28;20412;-65
2021/03/23 06:19:36;;;;;;;26.33;12.97;;;5.90;99.90;;;;;;5062552;28;20481;-65
2021/03/23 06:22:23;;;;;;;26.67;13.43;;;6.00;99.90;;;;;;5071827;28;20443;-65
2021/03/23 06:24:58;;;;;;;30.17;12.17;;;5.90;99.90;;;;;;5087665;28;20401;-65
2021/03/23 06:27:38;;;;;;;33.15;12.60;;;6.00;99.90;;;;;;5089993;28;20433;-65
2021/03/23 06:30:35;;;;;;;25.42;12.40;;;6.00;99.90;;;;;;5089892;28;20400;-66
2021/03/23 06:33:01;;;;;;;26.30;11.52;;;6.00;99.90;;;;;;5089132;28;20895;-66
2021/03/23 06:35:40;;;;;;;27.13;12.27;;;6.10;99.90;;;;;;5089403;28;20480;-64
2021/03/23 06:38:13;;;;;;;26.15;12.60;;;6.10;99.90;;;;;;5089751;28;20374;-61
2021/03/23 06:40:59;;;;;;;23.67;12.20;;;6.10;99.90;;;;;;5088922;28;20390;-65
2021/03/23 06:43:29;;;;;;;25.33;12.20;;;6.20;99.90;;;;;;5089787;28;20394;-66
2021/03/23 06:46:04;;;;;;;28.27;12.60;;;6.30;99.90;;;;;;5089408;28;20840;-65
2021/03/23 06:48:32;;;;;;;30.83;13.20;;;6.20;99.90;;;;;;5070575;28;20492;-65
2021/03/23 06:51:22;;;;;;;29.67;12.45;;;6.40;99.90;;;;;;5088245;28;20413;-64
2021/03/23 06:53:47;;;;;;;27.08;11.65;;;6.50;99.90;;;;;;5088040;28;20728;-60
2021/03/23 06:56:25;;;;;;;30.63;13.40;;;6.50;99.90;;;;;;5076189;28;20413;-64
2021/03/23 06:59:17;;;;;;;28.15;12.82;;;6.60;99.90;;;;;;5081255;28;20875;-64
2021/03/23 07:01:48;;;;;;;25.73;12.18;;;6.70;99.90;;;;;;5086568;28;20392;-65
2021/03/23 07:04:34;;;;;;;30.75;14.50;;;6.70;99.90;;;;;;5084571;28;20403;-65
2021/03/23 07:07:21;;;;;;;28.35;12.13;;;6.70;99.90;;;;;;5087643;28;20401;-64
2021/03/23 07:09:55;;;;;;;30.67;13.30;;;6.70;99.90;;;;;;5088473;28;20462;-65
2021/03/23 07:12:42;;;;;;;26.98;12.68;;;6.70;99.90;;;;;;5087819;28;20447;-64
2021/03/23 07:15:23;;;;;;;29.80;12.88;;;6.80;99.90;;;;;;5069353;28;20739;-63
2021/03/23 07:17:55;;;;;;;30.87;13.13;;;6.70;99.90;;;;;;5068758;28;20384;-65
2021/03/23 07:20:36;;;;;;;31.33;14.57;;;6.80;99.90;;;;;;5051025;28;20433;-65
2021/03/23 07:23:21;;;;;;;29.63;13.80;;;6.80;99.90;;;;;;5050841;28;20909;-65
2021/03/23 07:25:46;;;;;;;30.25;12.13;;;7.00;99.90;;;;;;5050395;28;20390;-66
2021/03/23 07:28:36;;;;;;;28.65;13.02;;;6.90;99.90;;;;;;5069393;28;20384;-65
2021/03/23 07:31:27;;;;;;;30.75;13.50;;;6.90;99.90;;;;;;5065939;28;20410;-64
2021/03/23 07:34:12;;;;;;;27.27;12.88;;;6.90;99.90;;;;;;5088568;28;20530;-61
2021/03/23 07:36:39;;;;;;;32.80;14.70;;;6.90;99.90;;;;;;5088330;28;20430;-59
2021/03/23 07:39:10;;;;;;;31.65;13.95;;;7.00;99.90;;;;;;5088968;28;20386;-66
2021/03/23 07:41:43;;;;;;;28.30;13.68;;;7.00;99.90;;;;;;5088253;28;20382;-59
2021/03/23 07:44:42;;;;;;;30.70;14.07;;;7.00;99.90;;;;;;5089307;28;20834;-65
2021/03/23 07:47:29;;;;;;;34.95;13.88;;;7.10;99.90;;;;;;5089226;28;20409;-65
2021/03/23 07:50:11;;;;;;;33.20;15.02;;;7.10;99.90;;;;;;5070306;28;20669;-66
2021/03/23 07:52:36;;;;;;;28.40;14.57;;;7.20;99.90;;;;;;5088424;28;20406;-59
2021/03/23 07:55:03;;;;;;;32.63;15.00;;;7.20;99.90;;;;;;5089341;28;20440;-64
2021/03/23 07:57:51;;;;;;;38.33;17.50;;;7.20;99.90;;;;;;5088459;28;20947;-65
2021/03/23 08:00:52;;;;;;;33.58;15.55;;;7.40;99.90;;;;;;5089626;28;20451;-64
2021/03/23 08:03:24;;;;;;;34.47;15.90;;;7.50;99.90;;;;;;5090500;28;20401;-64
2021/03/23 08:06:04;;;;;;;35.17;14.77;;;7.30;99.90;;;;;;5071879;28;20388;-64
2021/03/23 08:08:51;;;;;;;31.42;15.23;;;7.40;99.90;;;;;;5072272;28;20463;-64
2021/03/23 08:11:26;;;;;;;40.63;16.10;;;7.30;99.90;;;;;;5072410;28;20498;-64
2021/03/23 08:14:29;;;;;;;30.17;15.02;;;7.40;99.90;;;;;;5071745;28;20380;-64
2021/03/23 08:17:15;;;;;;;35.22;15.85;;;7.50;99.90;;;;;;5071088;28;20951;-64
2021/03/23 08:19:46;;;;;;;37.50;16.20;;;7.50;99.90;;;;;;5071606;28;20384;-65
2021/03/23 08:22:31;;;;;;;36.83;17.37;;;7.60;99.90;;;;;;5072360;28;20423;-64
2021/03/23 08:25:22;;;;;;;32.72;16.85;;;7.70;99.90;;;;;;5071467;28;20375;-65
2021/03/23 08:28:21;;;;;;;33.40;15.80;;;7.90;99.90;;;;;;5071345;28;20388;-65
2021/03/23 08:31:05;;;;;;;32.20;16.80;;;8.20;99.90;;;;;;5071056;28;20368;-65
2021/03/23 08:34:05;;;;;;;32.78;15.65;;;8.30;99.90;;;;;;5072265;28;20376;-66
2021/03/23 08:37:01;;;;;;;39.95;17.73;;;8.40;99.90;;;;;;5071782;28;20480;-64
2021/03/23 08:39:40;;;;;;;36.40;16.88;;;8.50;99.90;;;;;;5054020;28;20386;-65
2021/03/23 08:42:16;;;;;;;41.33;18.57;;;8.40;99.90;;;;;;5071576;28;20488;-64
2021/03/23 08:44:55;;;;;;;38.00;17.50;;;8.60;99.90;;;;;;5071039;28;20458;-66
2021/03/23 08:47:24;;;;;;;36.97;17.20;;;9.00;99.90;;;;;;5072017;28;21396;-65
2021/03/23 08:49:50;;;;;;;34.17;16.83;;;9.00;99.90;;;;;;5070763;28;20384;-66
2021/03/23 08:52:31;;;;;;;34.05;16.05;;;9.00;99.90;;;;;;5071601;28;20419;-65
2021/03/23 08:54:58;;;;;;;36.00;17.63;;;9.30;99.90;;;;;;5070927;28;20477;-66
2021/03/23 08:57:45;;;;;;;37.25;17.63;;;9.40;99.90;;;;;;5071442;28;20388;-62
2021/03/23 09:00:42;;;;;;;29.33;15.30;;;9.60;99.90;;;;;;5071144;28;20874;-66
2021/03/23 09:03:10;;;;;;;34.53;16.80;;;9.60;99.90;;;;;;5071249;28;20387;-67
2021/03/23 09:05:51;;;;;;;35.50;15.98;;;9.30;99.90;;;;;;5089767;28;20415;-59
2021/03/23 09:08:41;;;;;;;32.08;16.38;;;8.80;99.90;;;;;;5090104;28;20394;-67
2021/03/23 09:11:17;;;;;;;32.78;16.65;;;8.70;99.90;;;;;;5091164;28;20417;-67
2021/03/23 09:13:45;;;;;;;34.55;15.85;;;8.90;99.90;;;;;;5088204;28;20890;-66
2021/03/23 09:16:11;;;;;;;30.57;14.73;;;9.10;99.90;;;;;;5090871;28;20397;-67
2021/03/23 09:18:56;;;;;;;30.15;15.23;;;9.10;99.90;;;;;;5090799;28;20386;-61
2021/03/23 09:21:22;;;;;;;29.35;15.10;;;9.30;99.90;;;;;;5091024;28;20557;-67
2021/03/23 09:23:50;;;;;;;30.83;14.65;;;9.50;99.90;;;;;;5088809;28;20494;-67
2021/03/23 09:26:39;;;;;;;31.45;14.35;;;9.60;99.90;;;;;;5091103;28;20402;-67
2021/03/23 09:29:33;;;;;;;28.70;14.73;;;9.50;99.90;;;;;;5089758;28;20401;-61
2021/03/23 09:32:23;;;;;;;30.70;14.88;;;9.80;99.90;;;;;;5088939;28;20493;-67
2021/03/23 09:35:02;;;;;;;30.60;15.10;;;9.80;99.90;;;;;;5090276;28;20387;-66
2021/03/23 09:37:45;;;;;;;30.23;15.63;;;9.50;99.90;;;;;;5089630;28;20409;-67
2021/03/23 09:40:20;;;;;;;29.33;14.48;;;9.60;99.90;;;;;;5090761;28;20398;-68
2021/03/23 09:43:05;;;;;;;34.08;16.48;;;9.60;99.90;;;;;;5089938;28;20478;-67
2021/03/23 09:45:38;;;;;;;30.08;15.05;;;9.60;99.90;;;;;;5089250;28;20392;-67
2021/03/23 09:48:12;;;;;;;30.02;14.82;;;9.10;99.90;;;;;;5090432;28;20393;-67
2021/03/23 09:50:53;;;;;;;31.70;13.13;;;9.00;99.90;;;;;;5054563;28;20396;-65
2021/03/23 09:53:33;;;;;;;29.35;14.07;;;9.20;99.90;;;;;;5078395;28;20417;-67
2021/03/23 09:56:22;;;;;;;25.40;13.47;;;9.20;99.90;;;;;;5089942;28;20435;-68
2021/03/23 09:59:04;;;;;;;26.60;12.00;;;9.30;99.90;;;;;;5088199;28;20425;-66
2021/03/23 10:01:30;;;;;;;24.25;13.50;;;9.50;99.90;;;;;;5089412;28;20774;-67
2021/03/23 10:03:57;;;;;;;23.30;12.90;;;9.60;99.90;;;;;;5084859;28;20402;-68
2021/03/23 10:06:29;;;;;;;26.45;11.95;;;9.70;99.90;;;;;;5070505;28;20422;-67
2021/03/23 10:08:58;;;;;;;26.38;12.55;;;9.50;99.90;;;;;;5087998;28;20782;-68
2021/03/23 10:11:26;;;;;;;24.08;12.02;;;9.40;99.90;;;;;;5089613;28;20993;-67
2021/03/23 10:13:57;;;;;;;27.15;13.40;;;9.30;99.90;;;;;;5088858;28;20507;-67
2021/03/23 10:16:34;;;;;;;26.42;14.20;;;9.30;99.90;;;;;;5090625;28;20402;-67
2021/03/23 10:19:24;;;;;;;31.65;15.00;;;9.40;99.90;;;;;;5087776;28;21026;-67
2021/03/23 10:21:52;;;;;;;32.80;15.00;;;9.50;99.90;;;;;;5072820;28;20402;-68
2021/03/23 10:24:25;;;;;;;30.20;13.40;;;9.50;99.90;;;;;;5088772;28;20394;-66
2021/03/23 10:26:52;;;;;;;27.58;12.70;;;9.30;99.90;;;;;;5088582;28;20467;-65
2021/03/23 10:29:26;;;;;;;28.10;13.80;;;9.10;99.90;;;;;;5089091;28;20510;-67
2021/03/23 10:31:56;;;;;;;37.15;15.68;;;9.10;99.90;;;;;;5089447;28;20416;-67
2021/03/23 10:34:25;;;;;;;37.55;17.13;;;9.10;99.90;;;;;;5088663;28;20421;-67
2021/03/23 10:37:07;;;;;;;32.78;15.65;;;9.40;99.90;;;;;;5089007;28;20685;-67
2021/03/23 10:39:42;;;;;;;37.70;16.48;;;9.30;99.90;;;;;;5087973;28;20390;-67
2021/03/23 10:42:23;;;;;;;30.92;16.02;;;9.70;99.90;;;;;;5089945;28;20386;-67
2021/03/23 10:45:09;;;;;;;27.33;13.50;;;10.10;99.90;;;;;;5088479;28;20807;-66
2021/03/23 10:47:40;;;;;;;25.90;12.90;;;10.10;99.90;;;;;;5088937;28;20434;-67
2021/03/23 10:50:25;;;;;;;28.40;13.50;;;9.80;99.90;;;;;;5087843;28;20390;-68
2021/03/23 10:53:07;;;;;;;26.75;12.70;;;9.60;99.90;;;;;;5078914;28;20418;-66
2021/03/23 10:55:34;;;;;;;21.50;10.80;;;9.90;99.90;;;;;;5085277;28;20394;-72
2021/03/23 10:58:27;;;;;;;22.77;11.75;;;9.80;99.90;;;;;;5071968;28;20438;-67
2021/03/23 11:01:16;;;;;;;29.45;12.98;;;9.90;99.90;;;;;;5074350;28;20383;-72
2021/03/23 11:03:44;;;;;;;25.95;12.52;;;10.30;99.90;;;;;;5079480;28;20496;-61
2021/03/23 11:06:33;;;;;;;32.42;14.55;;;10.70;99.90;;;;;;5087033;28;20385;-70
2021/03/23 11:08:59;;;;;;;23.55;12.68;;;10.70;99.90;;;;;;5088489;28;20804;-67
2021/03/23 11:11:25;;;;;;;22.23;11.75;;;10.50;99.90;;;;;;5088489;28;20837;-66
2021/03/23 11:13:50;;;;;;;24.53;13.50;;;10.80;99.90;;;;;;5088889;28;20797;-68
2021/03/23 11:16:19;;;;;;;22.75;10.98;;;11.10;99.90;;;;;;5088251;28;20386;-71
2021/03/23 11:18:47;;;;;;;20.73;10.43;;;10.80;99.90;;;;;;5089149;28;20396;-68
2021/03/23 11:21:16;;;;;;;20.33;9.30;;;10.20;99.90;;;;;;5089707;28;20435;-69
2021/03/23 11:23:55;;;;;;;20.20;9.82;;;10.00;99.90;;;;;;5087445;28;20393;-64
2021/03/23 11:26:23;;;;;;;19.50;9.10;;;10.20;99.90;;;;;;5089510;28;20508;-73
2021/03/23 11:28:53;;;;;;;20.40;9.77;;;10.00;99.90;;;;;;5087545;28;20489;-70
2021/03/23 11:31:20;;;;;;;19.60;9.67;;;10.10;99.90;;;;;;5086977;28;20802;-69
2021/03/23 11:33:47;;;;;;;22.67;10.00;;;10.30;99.90;;;;;;5080136;28;20374;-69
2021/03/23 11:36:12;;;;;;;19.33;10.23;;;10.80;99.90;;;;;;5088521;28;20398;-69
2021/03/23 11:38:39;;;;;;;18.13;9.10;;;11.50;99.90;;;;;;5075292;28;20400;-69
2021/03/23 11:41:08;;;;;;;18.00;9.45;;;11.90;99.90;;;;;;5091187;28;20390;-69
2021/03/23 11:43:45;;;;;;;19.27;9.90;;;11.70;99.60;;;;;;5093268;28;20381;-69
2021/03/23 11:46:18;;;;;;;17.95;9.88;;;11.80;98.80;;;;;;5091578;28;20409;-69
2021/03/23 11:48:49;;;;;;;18.80;8.73;;;11.90;98.20;;;;;;5093067;28;20886;-71
2021/03/23 11:51:15;;;;;;;13.43;7.07;;;11.90;96.70;;;;;;5092792;28;20446;-66
2021/03/23 11:53:41;;;;;;;15.82;7.72;;;11.70;95.70;;;;;;5091014;28;20394;-60
2021/03/23 11:56:07;;;;;;;16.08;8.40;;;11.30;95.70;;;;;;5092192;28;20940;-69
2021/03/23 11:58:33;;;;;;;17.45;8.82;;;10.80;97.70;;;;;;5091408;28;20401;-70
2021/03/23 12:00:59;;;;;;;17.93;8.90;;;11.00;98.30;;;;;;5091556;28;20397;-70
2021/03/23 12:03:25;;;;;;;19.90;10.50;;;11.20;98.20;;;;;;5091232;28;20405;-73
2021/03/23 12:05:51;;;;;;;18.40;8.82;;;11.40;97.30;;;;;;5086906;28;20378;-70
2021/03/23 12:08:28;;;;;;;15.48;8.27;;;11.10;96.50;;;;;;5092408;28;20423;-71
2021/03/23 12:11:21;;;;;;;16.73;7.72;;;11.40;96.60;;;;;;5072772;28;20428;-73
2021/03/23 12:14:18;;;;;;;15.60;8.40;;;11.80;94.90;;;;;;5067842;28;20959;-71
2021/03/23 12:17:09;;;;;;;17.85;8.82;;;11.90;94.30;;;;;;5091163;28;20535;-71
2021/03/23 12:19:53;;;;;;;17.60;8.73;;;11.90;95.30;;;;;;5091219;28;20443;-71
2021/03/23 12:22:19;;;;;;;18.95;9.10;;;11.70;94.40;;;;;;5072436;28;20383;-69
2021/03/23 12:24:45;;;;;;;23.52;10.70;;;11.80;94.70;;;;;;5078110;28;20401;-62
2021/03/23 12:27:14;;;;;;;16.67;8.73;;;11.30;95.80;;;;;;5092511;28;20878;-70
2021/03/23 12:29:40;;;;;;;19.80;9.67;;;10.90;96.20;;;;;;5091832;28;20382;-71
2021/03/23 12:32:12;;;;;;;15.82;8.27;;;10.80;96.20;;;;;;5090967;28;20439;-67
2021/03/23 12:34:38;;;;;;;15.87;6.90;;;11.00;95.40;;;;;;5091252;28;20431;-71
2021/03/23 12:37:05;;;;;;;13.60;6.85;;;11.10;94.50;;;;;;5091397;28;20460;-76
2021/03/23 12:39:31;;;;;;;13.43;7.20;;;11.10;94.50;;;;;;5090539;28;20453;-72
2021/03/23 12:41:57;;;;;;;33.80;10.35;;;11.10;94.10;;;;;;5083527;28;20401;-63
2021/03/23 12:44:23;;;;;;;16.70;8.57;;;10.90;94.90;;;;;;5089559;28;20448;-67
2021/03/23 12:46:48;;;;;;;17.55;7.93;;;10.60;95.70;;;;;;5089128;28;20756;-66
2021/03/23 12:49:14;;;;;;;17.10;8.00;;;10.20;96.10;;;;;;5086056;28;20421;-69
2021/03/23 12:51:44;;;;;;;17.02;7.78;;;10.20;96.00;;;;;;5090338;28;21559;-66
2021/03/23 12:54:30;;;;;;;17.65;7.72;;;10.20;96.10;;;;;;5091308;28;20389;-67
2021/03/23 12:56:56;;;;;;;17.02;8.43;;;10.10;96.40;;;;;;5090478;28;20406;-67
2021/03/23 12:59:26;;;;;;;18.20;9.20;;;10.00;97.40;;;;;;5090598;28;20402;-66
2021/03/23 13:01:53;;;;;;;19.13;9.52;;;10.20;97.00;;;;;;5090594;28;20390;-67
2021/03/23 13:04:21;;;;;;;17.63;9.05;;;10.20;97.60;;;;;;5065668;28;20757;-67